Bookmark and Share
Track history (hours):
 

CMA-CGM Fort Saint Pierre

Last reported at 2014-Apr-16 13:33 UTC. Time now 2014-Apr-17 06:55 UTC.
Position N 38°05' W 030°35'.

Length 197 m; beam 30 m.

Type: Ship (hazmat cat A). MMSI: 226328000.

NotesDate/timePositionNaut miles runAvg speedWind from/ knotsBaromVisibWave heightAir tempDewpointWater temp
2014-Apr-16 13:33N 38°05' W 030°35'1919.0
2014-Apr-16 12:33N 38°15' W 030°15'1918.9
2014-Apr-16 11:33N 38°25' W 029°54'1918.7
2014-Apr-16 10:33N 38°35' W 029°34'4219.2
2014-Apr-16 08:22N 38°57' W 028°48'  
2014-Apr-13 02:26N 47°18' W 002°09'2110.4
2014-Apr-13 00:22N 47°02' W 002°31'4413.4
2014-Apr-12 21:06N 47°16' W 003°32'814.4
2014-Apr-12 20:33N 47°20' W 003°42'8714.5
2014-Apr-12 14:33N 48°10' W 005°28'16811.7
2014-Apr-12 00:10N 50°03' W 002°19'1015.6
2014-Apr-11 23:33N 50°04' W 002°04'2115.9
2014-Apr-11 22:15N 49°55' W 001°34'1116.3
2014-Apr-11 21:34N 49°51' W 001°18'3115.4
2014-Apr-11 19:33N 49°39' W 000°34'1514.8
2014-Apr-11 18:34N 49°32' W 000°14'1312.9
2014-Apr-11 17:33N 49°29' E 000°05'3 2.9
2014-Apr-11 16:31N 49°28' E 000°09'0 0.0
2014-Apr-11 15:31N 49°28' E 000°09'0 0.0
2014-Apr-11 14:31N 49°28' E 000°09'0 0.0
2014-Apr-11 13:31N 49°28' E 000°09'0 0.0
2014-Apr-11 12:31N 49°28' E 000°09'0 0.0
2014-Apr-11 11:31N 49°28' E 000°09'0 0.0
2014-Apr-11 10:31N 49°28' E 000°09'0 0.0
2014-Apr-11 09:31N 49°28' E 000°09'0 0.0
2014-Apr-11 08:28N 49°28' E 000°09'0 0.0
2014-Apr-11 07:31N 49°28' E 000°09'0 0.0
2014-Apr-11 06:31N 49°28' E 000°09'0 0.0
2014-Apr-11 05:31N 49°28' E 000°09'0 0.0
2014-Apr-11 04:31N 49°28' E 000°09'0 0.0
2014-Apr-11 03:31N 49°28' E 000°09'0 0.0
2014-Apr-11 02:31N 49°28' E 000°09'0 0.0
2014-Apr-11 01:31N 49°28' E 000°09'0 0.0
2014-Apr-11 00:31N 49°28' E 000°09'0 0.0
2014-Apr-10 23:31N 49°28' E 000°09'0 0.0
2014-Apr-10 22:31N 49°28' E 000°09'0 0.0
2014-Apr-10 21:31N 49°28' E 000°09'0 0.0
2014-Apr-10 20:31N 49°28' E 000°09'2 2.1
2014-Apr-10 19:34N 49°29' E 000°06'4 3.7
2014-Apr-10 18:33N 49°26' E 000°10'1211.6
2014-Apr-10 17:33N 49°28' E 000°28'7 6.4
2014-Apr-10 16:30N 49°26' E 000°37'7 0.2
2014-Apr-09 05:15N 49°30' E 000°46'5 7.1
2014-Apr-09 04:33N 49°28' E 000°40'9 9.4
2014-Apr-09 03:34N 49°27' E 000°26'1312.5
2014-Apr-09 02:33N 49°26' E 000°06'1010.4
2014-Apr-09 01:33N 49°30' W 000°09'1010.0
2014-Apr-09 00:33N 49°36' W 000°21'7 6.6
2014-Apr-08 23:29N 49°43' W 000°18'4816.6
2014-Apr-08 20:34N 50°30' E 000°00'2020.3
2014-Apr-08 19:34N 50°35' E 000°31'2019.7
2014-Apr-08 18:34N 50°45' E 000°57'1918.7
2014-Apr-08 17:33N 50°57' E 001°21'1616.2
2014-Apr-08 16:34N 51°06' E 001°42'1414.4
2014-Apr-08 15:34N 51°03' E 002°04'5 4.7
2014-Apr-08 14:32N 51°01' E 002°11'0 0.0
2014-Apr-08 13:32N 51°01' E 002°11'0 0.0
2014-Apr-08 12:32N 51°01' E 002°11'0 0.0
2014-Apr-08 11:32N 51°01' E 002°11'0 0.0
2014-Apr-08 10:32N 51°01' E 002°11'0 0.0
2014-Apr-08 09:32N 51°01' E 002°11'0 0.0
2014-Apr-08 08:32N 51°01' E 002°11'0 0.0
2014-Apr-08 07:32N 51°01' E 002°11'0 0.0
2014-Apr-08 06:32N 51°01' E 002°11'0 0.0
2014-Apr-08 05:32N 51°01' E 002°11'0 0.0
2014-Apr-08 04:29N 51°01' E 002°11'0 0.0
2014-Apr-08 03:29N 51°01' E 002°11'0 0.0
2014-Apr-08 02:32N 51°01' E 002°11'0 0.0
2014-Apr-08 01:26N 51°01' E 002°11'0 0.0
2014-Apr-08 00:32N 51°01' E 002°11'0 0.0
2014-Apr-07 23:32N 51°01' E 002°11'0 0.0
2014-Apr-07 22:32N 51°01' E 002°11'0 0.0
2014-Apr-07 21:23N 51°01' E 002°11'0 0.0
2014-Apr-07 20:32N 51°01' E 002°11'0 0.0
2014-Apr-07 19:32N 51°01' E 002°11'0 0.0
2014-Apr-07 17:29N 51°01' E 002°11'0 0.0
2014-Apr-07 16:32N 51°01' E 002°11'0 0.0
2014-Apr-07 15:33N 51°01' E 002°11'0 0.0
2014-Apr-07 14:32N 51°01' E 002°11'0 0.0
2014-Apr-07 13:32N 51°01' E 002°11'0 0.0
2014-Apr-07 12:32N 51°01' E 002°11'0 0.0
2014-Apr-07 11:32N 51°01' E 002°11'0 0.0
2014-Apr-07 10:29N 51°01' E 002°11'0 0.0
2014-Apr-07 09:32N 51°01' E 002°11'0 0.0
2014-Apr-07 08:32N 51°01' E 002°11'0 0.0
2014-Apr-07 07:32N 51°01' E 002°11'0 0.0
2014-Apr-07 06:29N 51°01' E 002°11'0 0.0
2014-Apr-07 05:32N 51°01' E 002°11'0 0.0
2014-Apr-07 04:33N 51°01' E 002°11'0 0.0
2014-Apr-07 03:33N 51°01' E 002°11'1 1.4
2014-Apr-07 02:34N 51°02' E 002°10'1414.1
2014-Apr-07 01:33N 51°02' E 001°47'8 8.0
2014-Apr-07 00:33N 50°58' E 001°36'3919.3
2014-Apr-06 22:33N 50°30' E 000°55'2220.3
2014-Apr-06 21:27N 50°23' E 000°21'5919.4
2014-Apr-06 18:26N 50°09' W 001°08'  

Dump ship's entire track history

sailing weather and tide predictions

CMA-CGM Fort Saint Pierre — FQFM — position and weather